createdAt,value
2019-02-16T00:02:27.658Z,8.30
2019-02-16T00:04:56.598Z,8.40
2019-02-16T00:07:25.551Z,8.40
2019-02-16T00:09:54.386Z,8.40
2019-02-16T00:12:23.771Z,8.40
2019-02-16T00:14:52.593Z,8.40
2019-02-16T00:17:21.395Z,8.40
2019-02-16T00:19:50.316Z,8.40
2019-02-16T00:22:19.185Z,8.40
2019-02-16T00:24:48.053Z,8.40
2019-02-16T00:27:16.943Z,8.30
2019-02-16T00:29:45.950Z,9.40
2019-02-16T00:32:14.851Z,8.30
2019-02-16T00:34:43.994Z,8.20
2019-02-16T00:37:12.872Z,8.20
2019-02-16T00:39:41.709Z,8.30
2019-02-16T00:42:10.892Z,8.20
2019-02-16T00:44:39.960Z,8.10
2019-02-16T00:47:08.856Z,8.20
2019-02-16T00:49:37.690Z,7.00
2019-02-16T00:52:06.592Z,8.10
2019-02-16T00:54:35.456Z,8.00
2019-02-16T00:57:04.387Z,7.90
2019-02-16T00:59:33.263Z,11.40
2019-02-16T01:02:02.145Z,8.00
2019-02-16T01:04:31.080Z,8.00
2019-02-16T01:06:59.967Z,8.10
2019-02-16T01:11:57.420Z,8.10
2019-02-16T01:14:26.223Z,8.10
2019-02-16T01:16:55.052Z,8.10
2019-02-16T01:19:23.824Z,8.20
2019-02-16T01:21:52.688Z,9.70
2019-02-16T01:24:21.557Z,8.20
2019-02-16T01:26:50.452Z,8.20
2019-02-16T01:31:48.053Z,8.20
2019-02-16T01:34:16.878Z,8.20
2019-02-16T01:36:45.821Z,8.90
2019-02-16T01:39:14.710Z,11.10
2019-02-16T01:41:43.602Z,11.00
2019-02-16T01:44:12.749Z,12.70
2019-02-16T01:49:10.139Z,12.30
2019-02-16T01:54:07.475Z,11.50
2019-02-16T01:56:36.322Z,11.10
2019-02-16T01:59:05.199Z,10.80
2019-02-16T02:01:34.089Z,10.60
2019-02-16T02:04:03.237Z,10.30
2019-02-16T02:13:57.866Z,9.60
2019-02-16T02:16:26.730Z,9.50
2019-02-16T02:18:55.624Z,9.30
2019-02-16T02:28:50.366Z,9.00
2019-02-16T02:31:19.229Z,8.90
2019-02-16T02:33:48.156Z,8.80
2019-02-16T02:36:17.022Z,8.80
2019-02-16T02:41:14.526Z,8.20
2019-02-16T02:48:40.843Z,8.50
2019-02-16T02:56:06.928Z,8.40
2019-02-16T03:03:33.038Z,8.30
2019-02-16T03:06:02.016Z,8.30
2019-02-16T03:10:59.454Z,8.20
2019-02-16T03:13:28.330Z,8.40
2019-02-16T03:18:25.753Z,8.00
2019-02-16T03:20:54.765Z,8.00
2019-02-16T03:23:23.763Z,7.90
2019-02-16T03:28:50.491Z,7.90
2019-02-16T03:34:14.682Z,8.00
2019-02-16T03:37:10.827Z,8.00
2019-02-16T03:39:41.540Z,8.00
2019-02-16T03:42:10.514Z,8.00
2019-02-16T03:44:46.368Z,8.00
2019-02-16T03:52:14.199Z,8.10
2019-02-16T03:54:42.960Z,8.10
2019-02-16T03:57:11.848Z,8.20
2019-02-16T03:59:40.857Z,8.20
2019-02-16T04:07:06.801Z,8.30
2019-02-16T04:12:04.257Z,8.20
2019-02-16T04:14:33.267Z,8.20
2019-02-16T04:17:02.169Z,8.20
2019-02-16T04:19:31.033Z,8.30
2019-02-16T04:26:56.997Z,8.30
2019-02-16T04:29:25.883Z,8.30
2019-02-16T04:34:23.185Z,8.30
2019-02-16T04:36:52.188Z,8.40
2019-02-16T04:39:21.155Z,8.40
2019-02-16T04:46:47.156Z,8.50
2019-02-16T04:49:15.933Z,8.50
2019-02-16T04:54:13.194Z,8.60
2019-02-16T04:56:42.141Z,8.60
2019-02-16T04:59:11.089Z,8.60
2019-02-16T05:09:07.001Z,8.60
2019-02-16T05:11:35.878Z,8.50
2019-02-16T05:14:04.760Z,8.50
2019-02-16T05:16:33.682Z,8.50
2019-02-16T05:19:02.546Z,8.40
2019-02-16T05:23:59.963Z,8.40
2019-02-16T05:26:28.730Z,8.30
2019-02-16T05:31:26.057Z,8.30
2019-02-16T05:33:55.036Z,8.20
2019-02-16T05:36:24.122Z,8.10
2019-02-16T05:43:50.014Z,8.00
2019-02-16T05:48:47.499Z,8.00
2019-02-16T05:51:16.279Z,8.00
2019-02-16T05:53:45.293Z,8.00
2019-02-16T05:56:14.244Z,7.90
2019-02-16T06:01:11.618Z,7.80
2019-02-16T06:03:40.533Z,10.20
2019-02-16T06:06:09.310Z,7.70
2019-02-16T06:08:38.097Z,7.70
2019-02-16T06:13:35.454Z,7.60
2019-02-16T06:16:04.446Z,7.60
2019-02-16T06:23:30.998Z,4.70
2019-02-16T06:25:59.863Z,7.40
2019-02-16T06:28:28.708Z,7.30
2019-02-16T06:30:57.589Z,7.20
2019-02-16T06:33:26.543Z,7.10
2019-02-16T06:35:57.006Z,7.10
2019-02-16T06:38:26.180Z,7.10
2019-02-16T06:43:23.736Z,7.00
2019-02-16T06:45:52.516Z,7.00
2019-02-16T06:48:21.605Z,6.90
2019-02-16T06:50:50.452Z,6.90
2019-02-16T06:58:18.021Z,6.90
2019-02-16T07:03:15.460Z,6.90
2019-02-16T07:05:44.445Z,6.90
2019-02-16T07:08:13.413Z,6.90
2019-02-16T07:15:39.363Z,6.90
2019-02-16T07:18:12.811Z,7.00
2019-02-16T07:20:41.672Z,7.10
2019-02-16T07:25:39.058Z,7.20
2019-02-16T07:33:04.904Z,7.40
2019-02-16T07:38:02.597Z,7.60
2019-02-16T07:40:31.639Z,7.70
2019-02-16T07:45:33.330Z,8.00
2019-02-16T07:50:46.041Z,8.30
2019-02-16T07:53:16.518Z,8.40
2019-02-16T07:55:47.629Z,8.50
2019-02-16T07:58:23.830Z,8.60
2019-02-16T08:03:33.824Z,13.50
2019-02-16T08:06:04.476Z,9.00
2019-02-16T08:08:40.868Z,8.80
2019-02-16T08:13:41.573Z,9.40
2019-02-16T08:16:14.874Z,9.60
2019-02-16T08:18:45.388Z,9.70
2019-02-16T08:21:24.569Z,9.90
2019-02-16T08:23:55.094Z,10.10
2019-02-16T08:26:28.305Z,10.70
2019-02-16T08:34:01.957Z,10.90
2019-02-16T08:36:32.459Z,11.10
2019-02-16T08:39:15.233Z,11.20
2019-02-16T08:41:45.835Z,11.40
2019-02-16T08:44:25.254Z,11.50
2019-02-16T08:47:01.874Z,11.70
2019-02-16T08:54:44.868Z,12.00
2019-02-16T08:57:33.620Z,12.20
2019-02-16T09:00:21.289Z,12.30
2019-02-16T09:02:54.710Z,12.30
2019-02-16T09:07:55.319Z,12.60
2019-02-16T09:10:31.555Z,12.60
2019-02-16T09:13:16.899Z,12.70
2019-02-16T09:20:56.265Z,11.30
2019-02-16T09:23:32.754Z,13.10
2019-02-16T09:26:05.941Z,13.20
2019-02-16T09:28:36.493Z,13.30
2019-02-16T09:33:49.511Z,13.40
2019-02-16T09:36:22.727Z,13.50
2019-02-16T09:38:53.286Z,13.50
2019-02-16T09:41:26.548Z,13.50
2019-02-16T09:46:48.616Z,13.50
2019-02-16T09:49:19.049Z,13.60
2019-02-16T09:52:07.643Z,13.50
2019-02-16T09:54:40.917Z,13.60
2019-02-16T09:57:11.159Z,17.30
2019-02-16T09:59:44.577Z,13.70
2019-02-16T10:02:27.029Z,13.80
2019-02-16T10:04:57.285Z,13.80
2019-02-16T10:07:27.576Z,13.90
2019-02-16T10:09:57.879Z,13.90
2019-02-16T10:20:44.073Z,14.10
2019-02-16T10:23:30.725Z,14.10
2019-02-16T10:26:01.323Z,17.00
2019-02-16T10:28:31.690Z,14.20
2019-02-16T10:31:04.860Z,14.20
2019-02-16T10:33:35.207Z,14.30
2019-02-16T10:36:05.564Z,14.40
2019-02-16T10:38:35.778Z,14.40
2019-02-16T10:41:06.714Z,14.50
2019-02-16T10:46:24.892Z,14.60
2019-02-16T10:48:58.011Z,15.00
2019-02-16T10:54:03.911Z,15.10
2019-02-16T10:56:52.332Z,15.20
2019-02-16T10:59:22.348Z,15.50
2019-02-16T11:01:58.632Z,15.70
2019-02-16T11:04:40.580Z,15.90
2019-02-16T11:07:10.826Z,16.20
2019-02-16T11:09:53.238Z,16.30
2019-02-16T11:14:56.976Z,15.20
2019-02-16T11:17:33.250Z,16.80
2019-02-16T11:20:20.148Z,17.00
2019-02-16T11:23:06.897Z,17.10
2019-02-16T11:31:15.405Z,17.60
2019-02-16T11:33:45.686Z,14.80
2019-02-16T11:38:57.830Z,17.90
2019-02-16T11:41:36.905Z,18.00
2019-02-16T11:47:01.429Z,18.30
2019-02-16T11:49:31.788Z,16.40
2019-02-16T11:54:53.690Z,20.10
2019-02-16T11:57:29.611Z,19.10
2019-02-16T12:00:02.902Z,19.60
2019-02-16T12:02:39.528Z,20.10
2019-02-16T12:05:17.202Z,20.70
2019-02-16T12:08:03.965Z,21.20
2019-02-16T12:10:50.933Z,22.30
2019-02-16T12:13:30.492Z,23.30
2019-02-16T12:16:17.293Z,24.20
2019-02-16T12:18:59.575Z,25.20
2019-02-16T12:24:25.667Z,26.80
2019-02-16T12:27:12.013Z,27.90
2019-02-16T12:29:44.631Z,29.00
2019-02-16T12:32:20.599Z,29.80
2019-02-16T12:34:50.844Z,30.40
2019-02-16T12:37:21.147Z,30.60
2019-02-16T12:39:54.410Z,31.90
2019-02-16T12:42:42.661Z,32.40
2019-02-16T12:45:29.668Z,32.70
2019-02-16T12:48:06.104Z,34.20
2019-02-16T12:50:43.880Z,35.00
2019-02-16T12:53:23.744Z,35.80
2019-02-16T12:55:53.958Z,36.00
2019-02-16T12:58:33.440Z,36.80
2019-02-16T13:01:19.160Z,36.80
2019-02-16T13:03:49.454Z,37.70
2019-02-16T13:06:22.694Z,37.80
2019-02-16T13:08:52.946Z,39.20
2019-02-16T13:11:23.162Z,39.30
2019-02-16T13:14:11.573Z,40.20
2019-02-16T13:16:44.958Z,40.20
2019-02-16T13:19:17.922Z,40.90
2019-02-16T13:21:50.558Z,41.00
2019-02-16T13:24:20.782Z,40.90
2019-02-16T13:26:59.800Z,40.80
2019-02-16T13:29:46.594Z,41.00
2019-02-16T13:32:22.716Z,41.30
2019-02-16T13:34:52.936Z,41.10
2019-02-16T13:37:28.716Z,40.90
2019-02-16T13:40:04.780Z,40.90
2019-02-16T13:42:34.928Z,40.90
2019-02-16T13:47:44.963Z,41.70
2019-02-16T13:50:24.631Z,42.80
2019-02-16T13:52:55.437Z,42.80
2019-02-16T13:55:33.283Z,42.80
2019-02-16T14:00:54.303Z,42.70
2019-02-16T14:03:30.776Z,44.30
2019-02-16T14:06:12.748Z,42.50
2019-02-16T14:08:43.125Z,42.40
2019-02-16T14:11:13.445Z,42.40
2019-02-16T14:13:58.697Z,42.40
2019-02-16T14:16:28.945Z,42.30
2019-02-16T14:18:57.463Z,40.50
2019-02-16T14:21:26.070Z,37.90
2019-02-16T14:23:54.849Z,32.90
2019-02-16T14:26:23.358Z,32.80
2019-02-16T14:28:51.954Z,30.80
2019-02-16T14:31:28.276Z,28.90
2019-02-16T14:33:50.877Z,26.70
2019-02-16T14:36:19.535Z,25.60
2019-02-16T14:38:52.599Z,24.70
2019-02-16T14:41:21.190Z,23.90
2019-02-16T14:43:49.843Z,23.40
2019-02-16T14:51:14.991Z,22.10
2019-02-16T14:56:11.835Z,21.70
2019-02-16T14:58:40.452Z,21.70
2019-02-16T15:01:09.041Z,21.40
2019-02-16T15:03:37.737Z,21.20
2019-02-16T15:06:06.325Z,21.00
2019-02-16T15:08:34.991Z,20.90
2019-02-16T15:11:03.589Z,20.80
2019-02-16T15:13:32.177Z,20.70
2019-02-16T15:16:00.788Z,20.60
2019-02-16T15:18:29.694Z,20.40
2019-02-16T15:20:58.811Z,20.50
2019-02-16T15:23:30.193Z,20.50
2019-02-16T15:26:01.002Z,20.30
2019-02-16T15:28:29.259Z,20.20
2019-02-16T15:30:57.905Z,20.30
2019-02-16T15:33:26.437Z,20.10
2019-02-16T15:35:55.356Z,19.80
2019-02-16T15:38:24.021Z,19.70
2019-02-16T15:40:52.633Z,19.60
2019-02-16T15:43:21.149Z,19.40
2019-02-16T15:45:49.899Z,19.30
2019-02-16T15:48:18.514Z,19.20
2019-02-16T15:50:47.137Z,19.00
2019-02-16T15:53:15.678Z,18.80
2019-02-16T15:55:44.246Z,18.70
2019-02-16T15:58:12.894Z,18.60
2019-02-16T16:00:41.726Z,18.30
2019-02-16T16:03:10.423Z,18.20
2019-02-16T16:05:39.095Z,18.30
2019-02-16T16:08:15.140Z,18.00
2019-02-16T16:10:51.180Z,17.80
2019-02-16T16:13:33.488Z,17.60
2019-02-16T16:16:04.059Z,17.40
2019-02-16T16:18:43.286Z,17.30
2019-02-16T16:21:16.215Z,17.00
2019-02-16T16:23:58.239Z,16.80
2019-02-16T16:26:28.550Z,16.60
2019-02-16T16:29:01.606Z,16.40
2019-02-16T16:31:43.723Z,16.20
2019-02-16T16:34:16.929Z,16.00
2019-02-16T16:37:03.319Z,15.80
2019-02-16T16:39:33.680Z,15.50
2019-02-16T16:45:11.975Z,15.10
2019-02-16T16:53:07.460Z,14.70
2019-02-16T16:55:47.071Z,14.50
2019-02-16T16:58:33.780Z,14.50
2019-02-16T17:01:20.737Z,14.40
2019-02-16T17:04:09.496Z,14.30
2019-02-16T17:06:45.897Z,14.20
2019-02-16T17:09:33.357Z,14.10
2019-02-16T17:12:10.075Z,17.10
2019-02-16T17:14:40.587Z,13.90
2019-02-16T17:17:13.832Z,13.80
2019-02-16T17:20:01.989Z,13.70
2019-02-16T17:22:48.987Z,13.60
2019-02-16T17:25:27.935Z,13.60
2019-02-16T17:28:04.758Z,13.50
2019-02-16T17:30:46.197Z,13.50
2019-02-16T17:33:17.044Z,13.60
2019-02-16T17:38:20.611Z,13.30
2019-02-16T17:40:51.114Z,13.30
2019-02-16T17:43:27.473Z,13.20
2019-02-16T17:48:28.198Z,13.00
2019-02-16T17:54:10.206Z,12.90
2019-02-16T17:56:57.162Z,12.80
2019-02-16T17:59:27.730Z,12.70
2019-02-16T18:01:58.278Z,12.60
2019-02-16T18:07:24.713Z,12.40
2019-02-16T18:12:25.391Z,12.30
2019-02-16T18:14:59.560Z,12.30
2019-02-16T18:17:32.818Z,12.20
2019-02-16T18:20:03.292Z,12.20
2019-02-16T18:22:33.811Z,12.20
2019-02-16T18:25:13.207Z,12.20
2019-02-16T18:27:43.697Z,12.20
2019-02-16T18:30:17.212Z,12.20
2019-02-16T18:33:04.014Z,12.20
2019-02-16T18:38:26.947Z,12.10
2019-02-16T18:41:14.031Z,12.10
2019-02-16T18:46:38.328Z,12.00
2019-02-16T18:56:54.163Z,11.80
2019-02-16T19:01:54.890Z,11.70
2019-02-16T19:07:14.605Z,11.40
2019-02-16T19:12:18.050Z,11.20
2019-02-16T19:22:40.172Z,11.20
2019-02-16T19:25:10.681Z,11.10
2019-02-16T19:27:43.989Z,11.10
2019-02-16T19:30:20.439Z,11.10
2019-02-16T19:35:21.193Z,11.10
2019-02-16T19:37:57.709Z,11.10
2019-02-16T19:40:37.439Z,11.10
2019-02-16T19:43:24.696Z,11.00
2019-02-16T19:46:01.349Z,10.90
2019-02-16T19:48:48.434Z,10.90
2019-02-16T19:51:31.043Z,10.80
2019-02-16T19:54:01.591Z,10.70
2019-02-16T19:56:35.039Z,10.60
2019-02-16T19:59:05.626Z,10.50
2019-02-16T20:01:44.980Z,10.50
2019-02-16T20:04:27.419Z,10.50
2019-02-16T20:06:57.929Z,10.40
2019-02-16T20:09:40.590Z,10.40
2019-02-16T20:14:59.622Z,10.30
2019-02-16T20:17:36.195Z,10.40
2019-02-16T20:20:21.072Z,10.30
2019-02-16T20:23:03.594Z,10.30
2019-02-16T20:25:34.598Z,10.20
2019-02-16T20:28:21.116Z,10.10
2019-02-16T20:30:54.713Z,10.10
2019-02-16T20:33:27.996Z,10.00
2019-02-16T20:36:10.657Z,10.00
2019-02-16T20:38:41.172Z,9.90
2019-02-16T20:43:47.786Z,10.00
2019-02-16T20:46:21.283Z,10.00
2019-02-16T20:48:54.576Z,10.00
2019-02-16T20:51:30.575Z,10.00
2019-02-16T20:54:03.726Z,10.00
2019-02-16T20:56:37.210Z,10.00
2019-02-16T20:59:08.942Z,10.00
2019-02-16T21:01:54.706Z,10.00
2019-02-16T21:04:25.222Z,10.00
2019-02-16T21:09:31.718Z,9.90
2019-02-16T21:12:20.519Z,9.80
2019-02-16T21:14:51.028Z,9.70
2019-02-16T21:17:38.202Z,9.70
2019-02-16T21:22:58.376Z,9.80
2019-02-16T21:30:34.564Z,9.80
2019-02-16T21:33:13.949Z,9.90
2019-02-16T21:35:56.803Z,9.90
2019-02-16T21:38:30.388Z,9.90
2019-02-16T21:41:13.185Z,9.90
2019-02-16T21:43:44.014Z,9.90
2019-02-16T21:46:14.518Z,9.90
2019-02-16T21:56:57.369Z,9.80
2019-02-16T21:59:31.047Z,9.70
2019-02-16T22:02:17.794Z,9.80
2019-02-16T22:04:57.538Z,9.70
2019-02-16T22:07:28.029Z,9.70
2019-02-16T22:10:04.450Z,9.70
2019-02-16T22:12:41.199Z,9.70
2019-02-16T22:15:11.248Z,9.70
2019-02-16T22:20:10.424Z,9.70
2019-02-16T22:22:39.470Z,9.70
2019-02-16T22:27:37.178Z,9.60
2019-02-16T22:32:36.514Z,9.60
2019-02-16T22:35:06.471Z,9.60
2019-02-16T22:37:35.533Z,9.60
2019-02-16T22:40:05.248Z,9.60
2019-02-16T22:45:02.996Z,9.60
2019-02-16T22:47:31.871Z,9.60
2019-02-16T22:50:00.725Z,9.60
2019-02-16T22:52:29.942Z,9.50
2019-02-16T22:54:59.022Z,9.50
2019-02-16T22:57:27.946Z,9.50
2019-02-16T22:59:56.729Z,9.50
2019-02-16T23:02:25.549Z,9.50
2019-02-16T23:04:54.447Z,9.40
2019-02-16T23:07:23.507Z,9.30
2019-02-16T23:09:52.370Z,9.30
2019-02-16T23:12:21.210Z,9.30
2019-02-16T23:17:18.716Z,9.30
2019-02-16T23:19:47.709Z,9.30
2019-02-16T23:22:16.641Z,9.30
2019-02-16T23:24:45.555Z,9.30
2019-02-16T23:27:14.608Z,9.30
2019-02-16T23:29:43.501Z,9.20
2019-02-16T23:32:12.389Z,9.10
2019-02-16T23:34:41.504Z,9.20
2019-02-16T23:37:10.452Z,9.10
2019-02-16T23:39:39.406Z,9.10
2019-02-16T23:42:08.290Z,9.10
2019-02-16T23:44:37.296Z,9.00
2019-02-16T23:49:35.340Z,9.00
2019-02-16T23:52:04.478Z,9.00
2019-02-16T23:54:33.416Z,8.90
2019-02-16T23:59:31.037Z,8.80
